Pancevo, Serbia
Current Conditions -  °F | °C
As of 11:30 AM on Friday 28 Nov 2014 (Local Time) from LYBE Reporting Station
Clear Clear  
Wind Chill:   Ceiling: Unl
Heat Index:   Visibility: 6mi
Dew Point:   Wind: 5mph
Humidity: 71%   Direction: 100°E
Pressure: 30.06"   Gusts: NA
Location:  44.87°N, 20.66°E
Report Text: LYBE 280930Z 10004KT CAVOK 08/03 Q1018 NOSIG
Loading
Personal Weather Stations






























Interactive Weather Map New forecast layout! Learn more

10-Day Weather Forecast

Advertisements
Track Severe Weather on mobile